sensor_id;sensor_type;location;lat;lon;timestamp;P1;durP1;ratioP1;P2;durP2;ratioP2
34557;SDS011;24708;48.888;8.736;2022-12-05T06:32:09;22.05;;;9.95;;
34557;SDS011;24708;48.888;8.736;2022-12-05T06:34:37;18.05;;;8.65;;
34557;SDS011;24708;48.888;8.736;2022-12-05T06:37:04;20.67;;;8.63;;
34557;SDS011;24708;48.888;8.736;2022-12-05T06:39:31;17.63;;;7.70;;
34557;SDS011;24708;48.888;8.736;2022-12-05T06:41:59;20.48;;;9.15;;
34557;SDS011;24708;48.888;8.736;2022-12-05T06:44:26;23.55;;;9.30;;
34557;SDS011;24708;48.888;8.736;2022-12-05T06:46:54;21.23;;;9.82;;
34557;SDS011;24708;48.888;8.736;2022-12-05T06:49:22;23.67;;;9.48;;
34557;SDS011;24708;48.888;8.736;2022-12-05T06:51:58;21.35;;;10.45;;
34557;SDS011;24708;48.888;8.736;2022-12-05T06:54:25;20.80;;;9.80;;
34557;SDS011;24708;48.888;8.736;2022-12-05T06:56:53;21.42;;;8.80;;
34557;SDS011;24708;48.888;8.736;2022-12-05T06:59:21;18.90;;;9.45;;
34557;SDS011;24708;48.888;8.736;2022-12-05T07:01:48;19.58;;;8.65;;
34557;SDS011;24708;48.888;8.736;2022-12-05T07:04:19;22.85;;;8.27;;
34557;SDS011;24708;48.888;8.736;2022-12-05T07:06:50;20.98;;;9.10;;
34557;SDS011;24708;48.888;8.736;2022-12-05T07:09:21;22.10;;;9.02;;
34557;SDS011;24708;48.888;8.736;2022-12-05T07:12:17;18.95;;;8.35;;
34557;SDS011;24708;48.888;8.736;2022-12-05T07:14:45;16.30;;;7.60;;
34557;SDS011;24708;48.888;8.736;2022-12-05T07:17:16;18.80;;;8.48;;
34557;SDS011;24708;48.888;8.736;2022-12-05T07:19:46;23.27;;;9.68;;
34557;SDS011;24708;48.888;8.736;2022-12-05T07:22:19;21.05;;;8.82;;
34557;SDS011;24708;48.888;8.736;2022-12-05T07:24:49;27.15;;;9.43;;
34557;SDS011;24708;48.888;8.736;2022-12-05T07:27:18;21.02;;;9.63;;
34557;SDS011;24708;48.888;8.736;2022-12-05T07:29:56;19.42;;;8.00;;
34557;SDS011;24708;48.888;8.736;2022-12-05T07:32:35;24.05;;;8.75;;
34557;SDS011;24708;48.888;8.736;2022-12-05T07:35:06;23.67;;;8.88;;
34557;SDS011;24708;48.888;8.736;2022-12-05T07:37:35;18.27;;;8.07;;
34557;SDS011;24708;48.888;8.736;2022-12-05T07:40:06;18.42;;;9.23;;
34557;SDS011;24708;48.888;8.736;2022-12-05T07:42:40;18.63;;;8.35;;
34557;SDS011;24708;48.888;8.736;2022-12-05T07:45:09;17.65;;;8.80;;
34557;SDS011;24708;48.888;8.736;2022-12-05T07:47:46;22.95;;;9.50;;
34557;SDS011;24708;48.888;8.736;2022-12-05T07:50:14;17.52;;;8.60;;
34557;SDS011;24708;48.888;8.736;2022-12-05T07:52:44;23.70;;;10.02;;
34557;SDS011;24708;48.888;8.736;2022-12-05T07:55:12;20.75;;;9.50;;
34557;SDS011;24708;48.888;8.736;2022-12-05T07:57:45;21.92;;;9.02;;
34557;SDS011;24708;48.888;8.736;2022-12-05T08:00:16;18.50;;;8.50;;
34557;SDS011;24708;48.888;8.736;2022-12-05T08:02:46;15.63;;;8.82;;
34557;SDS011;24708;48.888;8.736;2022-12-05T08:05:15;19.40;;;8.55;;
34557;SDS011;24708;48.888;8.736;2022-12-05T08:07:43;19.83;;;9.80;;
34557;SDS011;24708;48.888;8.736;2022-12-05T08:10:10;20.55;;;8.65;;
34557;SDS011;24708;48.888;8.736;2022-12-05T08:12:39;22.10;;;9.20;;
34557;SDS011;24708;48.888;8.736;2022-12-05T08:15:10;17.30;;;8.32;;
34557;SDS011;24708;48.888;8.736;2022-12-05T08:17:38;21.85;;;9.70;;
34557;SDS011;24708;48.888;8.736;2022-12-05T08:20:15;29.75;;;10.32;;
34557;SDS011;24708;48.888;8.736;2022-12-05T08:22:44;20.48;;;10.50;;
34557;SDS011;24708;48.888;8.736;2022-12-05T08:25:11;19.52;;;9.88;;
34557;SDS011;24708;48.888;8.736;2022-12-05T08:27:39;21.58;;;11.23;;
34557;SDS011;24708;48.888;8.736;2022-12-05T08:30:07;24.95;;;10.88;;
34557;SDS011;24708;48.888;8.736;2022-12-05T08:32:38;22.25;;;10.07;;
34557;SDS011;24708;48.888;8.736;2022-12-05T08:35:05;26.67;;;11.32;;
34557;SDS011;24708;48.888;8.736;2022-12-05T08:37:33;26.85;;;11.27;;
34557;SDS011;24708;48.888;8.736;2022-12-05T08:40:01;24.52;;;11.20;;
34557;SDS011;24708;48.888;8.736;2022-12-05T08:42:29;19.63;;;10.02;;
34557;SDS011;24708;48.888;8.736;2022-12-05T08:44:57;21.02;;;9.48;;
34557;SDS011;24708;48.888;8.736;2022-12-05T08:47:25;24.13;;;11.32;;
34557;SDS011;24708;48.888;8.736;2022-12-05T08:52:36;22.55;;;9.50;;
34557;SDS011;24708;48.888;8.736;2022-12-05T08:56:15;28.38;;;12.45;;
34557;SDS011;24708;48.888;8.736;2022-12-05T08:58:47;33.13;;;12.75;;
34557;SDS011;24708;48.888;8.736;2022-12-05T09:01:16;27.95;;;13.02;;
34557;SDS011;24708;48.888;8.736;2022-12-05T09:03:46;28.75;;;11.57;;
34557;SDS011;24708;48.888;8.736;2022-12-05T09:06:15;30.17;;;12.35;;
34557;SDS011;24708;48.888;8.736;2022-12-05T09:08:46;28.30;;;12.27;;
34557;SDS011;24708;48.888;8.736;2022-12-05T09:11:18;32.88;;;12.40;;
34557;SDS011;24708;48.888;8.736;2022-12-05T09:13:51;20.63;;;8.70;;
34557;SDS011;24708;48.888;8.736;2022-12-05T09:16:21;37.88;;;9.13;;
34557;SDS011;24708;48.888;8.736;2022-12-05T09:18:51;15.77;;;8.27;;
34557;SDS011;24708;48.888;8.736;2022-12-05T09:21:20;14.23;;;7.35;;
34557;SDS011;24708;48.888;8.736;2022-12-05T09:23:50;14.32;;;7.43;;
34557;SDS011;24708;48.888;8.736;2022-12-05T09:26:20;14.40;;;7.80;;
34557;SDS011;24708;48.888;8.736;2022-12-05T09:28:52;14.70;;;7.32;;
34557;SDS011;24708;48.888;8.736;2022-12-05T09:31:20;14.70;;;8.27;;
34557;SDS011;24708;48.888;8.736;2022-12-05T09:33:51;18.75;;;9.18;;
34557;SDS011;24708;48.888;8.736;2022-12-05T09:36:20;17.35;;;8.35;;
34557;SDS011;24708;48.888;8.736;2022-12-05T09:38:49;15.80;;;8.18;;
34557;SDS011;24708;48.888;8.736;2022-12-05T09:45:11;20.98;;;7.50;;
34557;SDS011;24708;48.888;8.736;2022-12-05T09:47:48;14.07;;;7.40;;
34557;SDS011;24708;48.888;8.736;2022-12-05T09:53:41;15.85;;;7.85;;
34557;SDS011;24708;48.888;8.736;2022-12-05T09:56:03;14.05;;;7.05;;
34557;SDS011;24708;48.888;8.736;2022-12-05T09:58:44;13.30;;;8.18;;
34557;SDS011;24708;48.888;8.736;2022-12-05T10:04:15;15.60;;;8.45;;
34557;SDS011;24708;48.888;8.736;2022-12-05T10:07:14;17.70;;;8.20;;
34557;SDS011;24708;48.888;8.736;2022-12-05T10:10:44;25.10;;;10.20;;
34557;SDS011;24708;48.888;8.736;2022-12-05T10:13:11;16.73;;;8.98;;
34557;SDS011;24708;48.888;8.736;2022-12-05T10:15:51;17.17;;;9.00;;
34557;SDS011;24708;48.888;8.736;2022-12-05T10:18:28;16.58;;;9.23;;
34557;SDS011;24708;48.888;8.736;2022-12-05T10:21:10;20.50;;;10.68;;
34557;SDS011;24708;48.888;8.736;2022-12-05T10:24:01;18.75;;;8.65;;
34557;SDS011;24708;48.888;8.736;2022-12-05T10:26:34;17.17;;;8.90;;
34557;SDS011;24708;48.888;8.736;2022-12-05T10:32:12;17.63;;;7.68;;
34557;SDS011;24708;48.888;8.736;2022-12-05T10:34:48;14.98;;;8.50;;
34557;SDS011;24708;48.888;8.736;2022-12-05T10:37:18;22.73;;;9.95;;
34557;SDS011;24708;48.888;8.736;2022-12-05T10:42:26;19.70;;;9.25;;
34557;SDS011;24708;48.888;8.736;2022-12-05T10:44:58;17.67;;;8.65;;
34557;SDS011;24708;48.888;8.736;2022-12-05T10:47:29;17.70;;;8.30;;
34557;SDS011;24708;48.888;8.736;2022-12-05T10:49:59;14.57;;;8.40;;
34557;SDS011;24708;48.888;8.736;2022-12-05T10:52:33;15.95;;;8.07;;
34557;SDS011;24708;48.888;8.736;2022-12-05T10:55:03;15.55;;;8.25;;
34557;SDS011;24708;48.888;8.736;2022-12-05T10:57:33;22.05;;;8.70;;
34557;SDS011;24708;48.888;8.736;2022-12-05T11:00:09;15.65;;;7.90;;
34557;SDS011;24708;48.888;8.736;2022-12-05T11:02:40;16.17;;;7.88;;
34557;SDS011;24708;48.888;8.736;2022-12-05T11:05:08;17.60;;;8.63;;
34557;SDS011;24708;48.888;8.736;2022-12-05T11:07:44;16.63;;;7.97;;
34557;SDS011;24708;48.888;8.736;2022-12-05T11:10:19;20.70;;;8.05;;
34557;SDS011;24708;48.888;8.736;2022-12-05T11:12:54;17.10;;;8.23;;
34557;SDS011;24708;48.888;8.736;2022-12-05T11:15:24;15.00;;;7.50;;
34557;SDS011;24708;48.888;8.736;2022-12-05T11:17:57;14.15;;;7.22;;
34557;SDS011;24708;48.888;8.736;2022-12-05T11:20:42;14.13;;;7.13;;
34557;SDS011;24708;48.888;8.736;2022-12-05T11:23:15;12.40;;;6.45;;
34557;SDS011;24708;48.888;8.736;2022-12-05T11:25:47;9.98;;;5.65;;
34557;SDS011;24708;48.888;8.736;2022-12-05T11:30:59;12.05;;;6.53;;
34557;SDS011;24708;48.888;8.736;2022-12-05T11:33:32;11.35;;;6.50;;
34557;SDS011;24708;48.888;8.736;2022-12-05T11:36:02;15.95;;;7.75;;
34557;SDS011;24708;48.888;8.736;2022-12-05T11:38:38;11.88;;;6.43;;
34557;SDS011;24708;48.888;8.736;2022-12-05T11:41:11;13.10;;;6.90;;
34557;SDS011;24708;48.888;8.736;2022-12-05T11:44:00;14.57;;;6.85;;
34557;SDS011;24708;48.888;8.736;2022-12-05T11:47:31;14.75;;;7.70;;
34557;SDS011;24708;48.888;8.736;2022-12-05T11:49:56;13.48;;;7.22;;
34557;SDS011;24708;48.888;8.736;2022-12-05T11:52:56;13.75;;;8.07;;
34557;SDS011;24708;48.888;8.736;2022-12-05T11:55:51;14.00;;;8.00;;
34557;SDS011;24708;48.888;8.736;2022-12-05T12:01:45;14.63;;;7.43;;
34557;SDS011;24708;48.888;8.736;2022-12-05T12:04:42;15.48;;;7.95;;
34557;SDS011;24708;48.888;8.736;2022-12-05T12:08:02;17.20;;;8.23;;
34557;SDS011;24708;48.888;8.736;2022-12-05T12:10:46;13.48;;;7.40;;
34557;SDS011;24708;48.888;8.736;2022-12-05T12:13:40;14.55;;;7.88;;
34557;SDS011;24708;48.888;8.736;2022-12-05T12:16:29;17.50;;;8.80;;
34557;SDS011;24708;48.888;8.736;2022-12-05T12:19:12;14.65;;;8.85;;
34557;SDS011;24708;48.888;8.736;2022-12-05T12:21:55;13.88;;;8.05;;
34557;SDS011;24708;48.888;8.736;2022-12-05T12:24:38;16.25;;;8.25;;
34557;SDS011;24708;48.888;8.736;2022-12-05T12:32:07;14.43;;;7.55;;
34557;SDS011;24708;48.888;8.736;2022-12-05T12:33:29;17.48;;;9.07;;
34557;SDS011;24708;48.888;8.736;2022-12-05T12:36:14;16.80;;;7.97;;
34557;SDS011;24708;48.888;8.736;2022-12-05T12:39:06;18.92;;;8.73;;
34557;SDS011;24708;48.888;8.736;2022-12-05T12:41:51;15.00;;;8.20;;
34557;SDS011;24708;48.888;8.736;2022-12-05T12:47:27;15.45;;;6.63;;
34557;SDS011;24708;48.888;8.736;2022-12-05T12:54:47;14.57;;;7.43;;
34557;SDS011;24708;48.888;8.736;2022-12-05T12:55:44;12.43;;;6.32;;
34557;SDS011;24708;48.888;8.736;2022-12-05T12:58:42;13.23;;;7.50;;
34557;SDS011;24708;48.888;8.736;2022-12-05T13:04:12;13.77;;;7.15;;
34557;SDS011;24708;48.888;8.736;2022-12-05T13:06:48;13.32;;;7.50;;
34557;SDS011;24708;48.888;8.736;2022-12-05T13:09:23;13.15;;;7.50;;
34557;SDS011;24708;48.888;8.736;2022-12-05T13:11:57;11.98;;;6.75;;
34557;SDS011;24708;48.888;8.736;2022-12-05T13:14:30;13.18;;;6.80;;
34557;SDS011;24708;48.888;8.736;2022-12-05T13:17:02;13.77;;;7.37;;
34557;SDS011;24708;48.888;8.736;2022-12-05T13:19:40;13.60;;;7.63;;
34557;SDS011;24708;48.888;8.736;2022-12-05T13:22:10;13.95;;;7.35;;
34557;SDS011;24708;48.888;8.736;2022-12-05T13:24:40;15.35;;;8.45;;
34557;SDS011;24708;48.888;8.736;2022-12-05T13:27:14;12.27;;;6.45;;
34557;SDS011;24708;48.888;8.736;2022-12-05T13:29:47;11.80;;;6.40;;
34557;SDS011;24708;48.888;8.736;2022-12-05T13:32:38;11.40;;;6.93;;
34557;SDS011;24708;48.888;8.736;2022-12-05T13:35:09;15.02;;;6.40;;
34557;SDS011;24708;48.888;8.736;2022-12-05T13:38:15;15.77;;;7.93;;
34557;SDS011;24708;48.888;8.736;2022-12-05T13:41:07;17.55;;;9.07;;
34557;SDS011;24708;48.888;8.736;2022-12-05T13:43:55;17.70;;;8.98;;
34557;SDS011;24708;48.888;8.736;2022-12-05T13:46:33;23.33;;;10.23;;
34557;SDS011;24708;48.888;8.736;2022-12-05T13:49:11;16.88;;;9.52;;
34557;SDS011;24708;48.888;8.736;2022-12-05T13:51:43;19.00;;;9.40;;
34557;SDS011;24708;48.888;8.736;2022-12-05T13:54:14;19.88;;;10.73;;
34557;SDS011;24708;48.888;8.736;2022-12-05T13:57:00;18.60;;;9.88;;
34557;SDS011;24708;48.888;8.736;2022-12-05T14:07:54;25.60;;;10.65;;
34557;SDS011;24708;48.888;8.736;2022-12-05T14:15:52;15.20;;;8.25;;
34557;SDS011;24708;48.888;8.736;2022-12-05T14:18:27;27.38;;;10.18;;
34557;SDS011;24708;48.888;8.736;2022-12-05T14:21:16;20.38;;;9.98;;
34557;SDS011;24708;48.888;8.736;2022-12-05T14:24:11;17.45;;;8.60;;
34557;SDS011;24708;48.888;8.736;2022-12-05T14:26:59;21.05;;;10.45;;
34557;SDS011;24708;48.888;8.736;2022-12-05T14:29:51;19.95;;;10.25;;
34557;SDS011;24708;48.888;8.736;2022-12-05T14:32:32;19.40;;;10.63;;
34557;SDS011;24708;48.888;8.736;2022-12-05T14:35:12;16.17;;;8.70;;
34557;SDS011;24708;48.888;8.736;2022-12-05T14:37:51;22.02;;;8.95;;
34557;SDS011;24708;48.888;8.736;2022-12-05T14:40:30;15.45;;;8.98;;
34557;SDS011;24708;48.888;8.736;2022-12-05T14:43:04;16.55;;;8.65;;
34557;SDS011;24708;48.888;8.736;2022-12-05T14:48:32;19.00;;;7.97;;
34557;SDS011;24708;48.888;8.736;2022-12-05T14:54:06;15.10;;;7.45;;
34557;SDS011;24708;48.888;8.736;2022-12-05T14:56:43;21.38;;;8.20;;
34557;SDS011;24708;48.888;8.736;2022-12-05T14:59:21;12.77;;;7.30;;
34557;SDS011;24708;48.888;8.736;2022-12-05T15:01:54;14.95;;;7.25;;
34557;SDS011;24708;48.888;8.736;2022-12-05T15:04:56;13.27;;;7.63;;
34557;SDS011;24708;48.888;8.736;2022-12-05T15:07:18;15.65;;;7.80;;
34557;SDS011;24708;48.888;8.736;2022-12-05T15:18:19;14.57;;;7.40;;
34557;SDS011;24708;48.888;8.736;2022-12-05T15:20:53;11.13;;;6.22;;
34557;SDS011;24708;48.888;8.736;2022-12-05T15:23:44;13.80;;;6.43;;
34557;SDS011;24708;48.888;8.736;2022-12-05T15:26:18;12.20;;;6.25;;
34557;SDS011;24708;48.888;8.736;2022-12-05T15:29:22;9.60;;;5.55;;
34557;SDS011;24708;48.888;8.736;2022-12-05T15:31:54;13.20;;;5.95;;
34557;SDS011;24708;48.888;8.736;2022-12-05T15:34:30;12.32;;;5.75;;
34557;SDS011;24708;48.888;8.736;2022-12-05T15:37:15;12.50;;;5.60;;
34557;SDS011;24708;48.888;8.736;2022-12-05T15:40:18;10.93;;;5.85;;
34557;SDS011;24708;48.888;8.736;2022-12-05T15:42:46;11.07;;;6.22;;
34557;SDS011;24708;48.888;8.736;2022-12-05T15:45:23;8.93;;;5.82;;
34557;SDS011;24708;48.888;8.736;2022-12-05T15:48:09;12.57;;;6.03;;
34557;SDS011;24708;48.888;8.736;2022-12-05T15:50:40;10.45;;;5.78;;
34557;SDS011;24708;48.888;8.736;2022-12-05T15:53:17;12.43;;;5.75;;
34557;SDS011;24708;48.888;8.736;2022-12-05T15:56:05;11.88;;;6.15;;
34557;SDS011;24708;48.888;8.736;2022-12-05T15:58:57;11.52;;;5.47;;
34557;SDS011;24708;48.888;8.736;2022-12-05T16:01:31;10.60;;;5.93;;
34557;SDS011;24708;48.888;8.736;2022-12-05T16:04:06;10.20;;;5.88;;
34557;SDS011;24708;48.888;8.736;2022-12-05T16:06:54;13.13;;;6.80;;
34557;SDS011;24708;48.888;8.736;2022-12-05T16:09:22;9.18;;;5.25;;
34557;SDS011;24708;48.888;8.736;2022-12-05T16:11:53;11.05;;;6.10;;
34557;SDS011;24708;48.888;8.736;2022-12-05T16:14:23;12.25;;;6.07;;
34557;SDS011;24708;48.888;8.736;2022-12-05T16:17:15;15.32;;;6.72;;
34557;SDS011;24708;48.888;8.736;2022-12-05T16:19:42;8.88;;;5.93;;
34557;SDS011;24708;48.888;8.736;2022-12-05T16:24:53;9.75;;;5.57;;
34557;SDS011;24708;48.888;8.736;2022-12-05T16:27:27;11.80;;;6.50;;
34557;SDS011;24708;48.888;8.736;2022-12-05T16:32:45;9.25;;;5.40;;
34557;SDS011;24708;48.888;8.736;2022-12-05T16:35:25;11.32;;;5.85;;
34557;SDS011;24708;48.888;8.736;2022-12-05T16:38:03;13.63;;;6.90;;
34557;SDS011;24708;48.888;8.736;2022-12-05T16:40:58;21.15;;;6.10;;
34557;SDS011;24708;48.888;8.736;2022-12-05T16:43:39;17.35;;;5.45;;
34557;SDS011;24708;48.888;8.736;2022-12-05T16:48:45;12.02;;;6.00;;
34557;SDS011;24708;48.888;8.736;2022-12-05T16:54:27;10.50;;;6.28;;
34557;SDS011;24708;48.888;8.736;2022-12-05T16:56:54;10.10;;;5.63;;
34557;SDS011;24708;48.888;8.736;2022-12-05T16:59:24;10.65;;;6.05;;
